Hershey, Pennsylvania
Current Conditions -  °F | °C
As of 12:56 PM on Monday 24 Nov 2014 (Local Time) from KMDT Reporting Station
Few Clouds Few Clouds  
Wind Chill: 68°   Ceiling: Unl
Heat Index: 68°   Visibility: 10mi
Dew Point: 53°   Wind: 16mph
Humidity: 59%   Direction: 190°S
Pressure: 29.53"   Gusts: 30mph
Location:  40.29°N, 76.65°W
Report Text: KMDT 241756Z 19014G26KT 10SM FEW033 20/12 A2953 RMK AO2 PK WND 19028/1730 PRESFR SLP999 T02000117 10200 20167 58029
Loading
Personal Weather Stations






























Interactive Weather Map New forecast layout! Learn more

10-Day Weather Forecast

Advertisements
Track Severe Weather on mobile